sensor_id;sensor_type;location;lat;lon;timestamp;pressure;altitude;pressure_sealevel;temperature;humidity
19843;BME280;10082;51.038;6.992;2023-04-01T00:02:17;6144.03;;;-144.33;100.00
19843;BME280;10082;51.038;6.992;2023-04-01T00:04:45;6144.03;;;-144.33;100.00
19843;BME280;10082;51.038;6.992;2023-04-01T00:07:13;6896.72;;;-144.33;100.00
19843;BME280;10082;51.038;6.992;2023-04-01T00:09:41;7147.66;;;-144.33;100.00
19843;BME280;10082;51.038;6.992;2023-04-01T00:12:09;7900.53;;;-144.33;100.00
19843;BME280;10082;51.038;6.992;2023-04-01T00:14:36;9908.97;;;-144.33;100.00
19843;BME280;10082;51.038;6.992;2023-04-01T00:17:07;11667.19;;;-144.33;100.00
19843;BME280;10082;51.038;6.992;2023-04-01T00:19:35;14180.28;;;-144.33;100.00
19843;BME280;10082;51.038;6.992;2023-04-01T00:22:03;15940.44;;;-144.33;100.00
19843;BME280;10082;51.038;6.992;2023-04-01T00:24:32;17198.19;;;-144.33;100.00
19843;BME280;10082;51.038;6.992;2023-04-01T00:26:59;18708.03;;;-144.33;100.00
19843;BME280;10082;51.038;6.992;2023-04-01T00:29:27;19211.44;;;-144.33;100.00
19843;BME280;10082;51.038;6.992;2023-04-01T00:31:56;21225.69;;;-144.33;100.00
19843;BME280;10082;51.038;6.992;2023-04-01T00:34:25;22233.22;;;-144.33;100.00
19843;BME280;10082;51.038;6.992;2023-04-01T00:36:52;21477.56;;;-144.33;100.00
19843;BME280;10082;51.038;6.992;2023-04-01T00:39:20;21477.56;;;-144.33;100.00
19843;BME280;10082;51.038;6.992;2023-04-01T00:41:48;21225.69;;;-144.33;100.00
19843;BME280;10082;51.038;6.992;2023-04-01T00:44:17;21729.44;;;-144.33;100.00
19843;BME280;10082;51.038;6.992;2023-04-01T00:46:45;20470.22;;;-144.33;100.00
19843;BME280;10082;51.038;6.992;2023-04-01T00:49:13;20973.84;;;-144.33;100.00
19843;BME280;10082;51.038;6.992;2023-04-01T00:51:45;21729.44;;;-144.33;100.00
19843;BME280;10082;51.038;6.992;2023-04-01T00:54:14;22485.16;;;-144.33;100.00
19843;BME280;10082;51.038;6.992;2023-04-01T00:56:46;23493.00;;;-144.33;100.00
19843;BME280;10082;51.038;6.992;2023-04-01T00:59:18;22989.03;;;-144.33;100.00
19843;BME280;10082;51.038;6.992;2023-04-01T01:01:48;21981.31;;;-144.33;100.00
19843;BME280;10082;51.038;6.992;2023-04-01T01:04:23;21729.44;;;-144.33;100.00
19843;BME280;10082;51.038;6.992;2023-04-01T01:06:59;21981.31;;;-144.33;100.00
19843;BME280;10082;51.038;6.992;2023-04-01T01:09:35;20973.84;;;-144.33;100.00
19843;BME280;10082;51.038;6.992;2023-04-01T01:12:13;19463.16;;;-144.33;100.00
19843;BME280;10082;51.038;6.992;2023-04-01T01:14:56;17449.78;;;-144.33;100.00
19843;BME280;10082;51.038;6.992;2023-04-01T01:17:39;14683.13;;;-144.33;100.00
19843;BME280;10082;51.038;6.992;2023-04-01T01:20:31;11164.75;;;-144.33;100.00
19843;BME280;10082;51.038;6.992;2023-04-01T01:23:44;9657.84;;;-144.33;100.00
19843;BME280;10082;51.038;6.992;2023-04-01T01:26:34;7900.53;;;-144.33;100.00
19843;BME280;10082;51.038;6.992;2023-04-01T01:29:25;6896.72;;;-144.33;100.00
19843;BME280;10082;51.038;6.992;2023-04-01T01:32:04;5391.50;;;-144.33;100.00
19843;BME280;10082;51.038;6.992;2023-04-01T01:34:36;4639.09;;;-144.33;100.00
19843;BME280;10082;51.038;6.992;2023-04-01T01:37:11;4388.31;;;-144.33;100.00
19843;BME280;10082;51.038;6.992;2023-04-01T01:39:41;3886.84;;;-144.33;100.00
19843;BME280;10082;51.038;6.992;2023-04-01T01:42:13;4639.09;;;-144.33;100.00
19843;BME280;10082;51.038;6.992;2023-04-01T01:47:29;4889.88;;;-144.33;100.00
19843;BME280;10082;51.038;6.992;2023-04-01T01:49:59;5391.50;;;-144.33;100.00
19843;BME280;10082;51.038;6.992;2023-04-01T01:52:30;4639.09;;;-144.33;100.00
19843;BME280;10082;51.038;6.992;2023-04-01T01:54:58;3385.41;;;-144.33;100.00
19843;BME280;10082;51.038;6.992;2023-04-01T01:57:36;1881.56;;;-144.33;100.00
19843;BME280;10082;51.038;6.992;2023-04-01T02:00:12;879.31;;;-144.33;100.00
19843;BME280;10082;51.038;6.992;2023-04-01T02:02:44;-373.16;;;-144.33;100.00
19843;BME280;10082;51.038;6.992;2023-04-01T02:05:16;-1124.44;;;-144.33;100.00
19843;BME280;10082;51.038;6.992;2023-04-01T02:07:49;-2376.22;;;-144.33;100.00
19843;BME280;10082;51.038;6.992;2023-04-01T02:10:22;-2876.84;;;-144.33;100.00
19843;BME280;10082;51.038;6.992;2023-04-01T02:12:53;-3627.63;;;-144.33;100.00
19843;BME280;10082;51.038;6.992;2023-04-01T02:15:25;-4628.44;;;-144.33;100.00
19843;BME280;10082;51.038;6.992;2023-04-01T02:17:56;-4878.59;;;-144.33;100.00
19843;BME280;10082;51.038;6.992;2023-04-01T02:20:26;-6129.19;;;-144.33;100.00
19843;BME280;10082;51.038;6.992;2023-04-01T02:22:57;-6629.28;;;-144.33;100.00
19843;BME280;10082;51.038;6.992;2023-04-01T02:25:29;-7129.34;;;-144.33;100.00
19843;BME280;10082;51.038;6.992;2023-04-01T02:27:58;-7879.31;;;-144.33;100.00
19843;BME280;10082;51.038;6.992;2023-04-01T02:30:29;-8379.19;;;-144.33;100.00
19843;BME280;10082;51.038;6.992;2023-04-01T02:32:58;-9128.91;;;-144.33;100.00
19843;BME280;10082;51.038;6.992;2023-04-01T02:35:26;-9878.47;;;-144.33;100.00
19843;BME280;10082;51.038;6.992;2023-04-01T02:37:54;-10627.88;;;-144.33;100.00
19843;BME280;10082;51.038;6.992;2023-04-01T02:40:23;-11127.41;;;-144.33;100.00
19843;BME280;10082;51.038;6.992;2023-04-01T02:42:51;-11876.59;;;-144.33;100.00
19843;BME280;10082;51.038;6.992;2023-04-01T02:45:18;-12625.63;;;-144.33;100.00
19843;BME280;10082;51.038;6.992;2023-04-01T02:47:45;-13374.50;;;-144.33;100.00
19843;BME280;10082;51.038;6.992;2023-04-01T02:50:13;-13873.69;;;-144.33;100.00
19843;BME280;10082;51.038;6.992;2023-04-01T02:52:40;-14871.81;;;-144.33;100.00
19843;BME280;10082;51.038;6.992;2023-04-01T02:55:08;-15620.25;;;-144.33;100.00
19843;BME280;10082;51.038;6.992;2023-04-01T02:57:37;-16867.34;;;-144.33;100.00
19843;BME280;10082;51.038;6.992;2023-04-01T03:00:10;-17366.06;;;-144.33;100.00
19843;BME280;10082;51.038;6.992;2023-04-01T03:02:41;-17616.84;;;-144.33;100.00
19843;BME280;10082;51.038;6.992;2023-04-01T03:05:09;-17616.84;;;-144.33;100.00
19843;BME280;10082;51.038;6.992;2023-04-01T03:07:38;-17616.84;;;-144.33;100.00
19843;BME280;10082;51.038;6.992;2023-04-01T03:10:07;-17616.84;;;-144.33;100.00
19843;BME280;10082;51.038;6.992;2023-04-01T03:12:38;-17616.84;;;-144.33;100.00
19843;BME280;10082;51.038;6.992;2023-04-01T03:15:08;-17616.84;;;-144.33;100.00
19843;BME280;10082;51.038;6.992;2023-04-01T03:17:37;-17616.84;;;-144.33;100.00
19843;BME280;10082;51.038;6.992;2023-04-01T03:20:08;-17616.84;;;-144.33;100.00
19843;BME280;10082;51.038;6.992;2023-04-01T03:22:40;-17616.84;;;-144.33;100.00
19843;BME280;10082;51.038;6.992;2023-04-01T03:25:09;-17616.84;;;-144.33;100.00
19843;BME280;10082;51.038;6.992;2023-04-01T03:27:40;-17616.84;;;-144.33;100.00
19843;BME280;10082;51.038;6.992;2023-04-01T03:30:11;-17616.84;;;-144.33;100.00
19843;BME280;10082;51.038;6.992;2023-04-01T03:32:48;-17616.84;;;-144.33;100.00
19843;BME280;10082;51.038;6.992;2023-04-01T03:35:19;-17616.84;;;-144.33;100.00
19843;BME280;10082;51.038;6.992;2023-04-01T03:37:46;-17616.84;;;-144.33;100.00
19843;BME280;10082;51.038;6.992;2023-04-01T03:40:19;-17616.84;;;-144.33;100.00
19843;BME280;10082;51.038;6.992;2023-04-01T03:42:49;-17616.84;;;-144.33;100.00
19843;BME280;10082;51.038;6.992;2023-04-01T03:45:17;-17616.84;;;-144.33;100.00
19843;BME280;10082;51.038;6.992;2023-04-01T03:47:47;-17616.84;;;-144.33;100.00
19843;BME280;10082;51.038;6.992;2023-04-01T03:50:15;-17616.84;;;-144.33;100.00
19843;BME280;10082;51.038;6.992;2023-04-01T03:52:42;-17616.84;;;-144.33;100.00
19843;BME280;10082;51.038;6.992;2023-04-01T03:55:10;-17616.84;;;-144.33;100.00
19843;BME280;10082;51.038;6.992;2023-04-01T03:57:42;-17616.84;;;-144.33;100.00
19843;BME280;10082;51.038;6.992;2023-04-01T04:00:18;-17616.84;;;-144.33;100.00
19843;BME280;10082;51.038;6.992;2023-04-01T04:02:51;-17616.84;;;-144.33;100.00
19843;BME280;10082;51.038;6.992;2023-04-01T04:05:25;-17616.84;;;-144.33;100.00
19843;BME280;10082;51.038;6.992;2023-04-01T04:07:54;-17616.84;;;-144.33;100.00
19843;BME280;10082;51.038;6.992;2023-04-01T04:10:23;-17616.84;;;-144.33;100.00
19843;BME280;10082;51.038;6.992;2023-04-01T04:12:51;-17616.84;;;-144.33;100.00
19843;BME280;10082;51.038;6.992;2023-04-01T04:15:23;-17616.84;;;-144.33;100.00
19843;BME280;10082;51.038;6.992;2023-04-01T04:17:51;-17616.84;;;-144.33;100.00
19843;BME280;10082;51.038;6.992;2023-04-01T04:20:19;-17616.84;;;-144.33;100.00
19843;BME280;10082;51.038;6.992;2023-04-01T04:22:46;-17616.84;;;-144.33;100.00
19843;BME280;10082;51.038;6.992;2023-04-01T04:25:13;-17616.84;;;-144.33;100.00
19843;BME280;10082;51.038;6.992;2023-04-01T04:27:41;-17616.84;;;-144.33;100.00
19843;BME280;10082;51.038;6.992;2023-04-01T04:30:11;-17616.84;;;-144.33;100.00
19843;BME280;10082;51.038;6.992;2023-04-01T04:32:41;-17616.84;;;-144.33;100.00
19843;BME280;10082;51.038;6.992;2023-04-01T04:35:10;-17616.84;;;-144.33;100.00
19843;BME280;10082;51.038;6.992;2023-04-01T04:37:39;-17616.84;;;-144.33;100.00
19843;BME280;10082;51.038;6.992;2023-04-01T04:40:10;-17616.84;;;-144.33;100.00
19843;BME280;10082;51.038;6.992;2023-04-01T04:42:38;-17616.84;;;-144.33;100.00
19843;BME280;10082;51.038;6.992;2023-04-01T04:45:10;-17616.84;;;-144.33;100.00
19843;BME280;10082;51.038;6.992;2023-04-01T04:47:44;-17616.84;;;-144.33;100.00
19843;BME280;10082;51.038;6.992;2023-04-01T04:50:16;-17616.84;;;-144.33;100.00
19843;BME280;10082;51.038;6.992;2023-04-01T04:52:45;-17616.84;;;-144.33;100.00
19843;BME280;10082;51.038;6.992;2023-04-01T04:55:13;-17616.84;;;-144.33;100.00
19843;BME280;10082;51.038;6.992;2023-04-01T04:57:44;-17616.84;;;-144.33;100.00
19843;BME280;10082;51.038;6.992;2023-04-01T05:00:15;-17616.84;;;-144.33;100.00
19843;BME280;10082;51.038;6.992;2023-04-01T05:02:53;-17616.84;;;-144.33;100.00
19843;BME280;10082;51.038;6.992;2023-04-01T05:05:21;-17616.84;;;-144.33;100.00
19843;BME280;10082;51.038;6.992;2023-04-01T05:07:49;-17616.84;;;-144.33;100.00
19843;BME280;10082;51.038;6.992;2023-04-01T05:10:16;-17616.84;;;-144.33;100.00
19843;BME280;10082;51.038;6.992;2023-04-01T05:12:46;-17616.84;;;-144.33;100.00
19843;BME280;10082;51.038;6.992;2023-04-01T05:15:17;-17616.84;;;-144.33;100.00
19843;BME280;10082;51.038;6.992;2023-04-01T05:17:47;-17616.84;;;-144.33;100.00
19843;BME280;10082;51.038;6.992;2023-04-01T05:20:16;-17616.84;;;-144.33;100.00
19843;BME280;10082;51.038;6.992;2023-04-01T05:22:43;-17616.84;;;-144.33;100.00
19843;BME280;10082;51.038;6.992;2023-04-01T05:25:10;-17616.84;;;-144.33;100.00
19843;BME280;10082;51.038;6.992;2023-04-01T05:27:38;-17616.84;;;-144.33;100.00
19843;BME280;10082;51.038;6.992;2023-04-01T05:30:07;-17616.84;;;-144.33;100.00
19843;BME280;10082;51.038;6.992;2023-04-01T05:33:09;-17616.84;;;-144.33;100.00
19843;BME280;10082;51.038;6.992;2023-04-01T05:35:42;-17616.84;;;-144.33;100.00
19843;BME280;10082;51.038;6.992;2023-04-01T05:38:21;-17616.84;;;-144.33;100.00
19843;BME280;10082;51.038;6.992;2023-04-01T05:40:51;-17616.84;;;-144.33;100.00
19843;BME280;10082;51.038;6.992;2023-04-01T05:43:22;-17616.84;;;-144.33;100.00
19843;BME280;10082;51.038;6.992;2023-04-01T05:45:50;-17616.84;;;-144.33;100.00
19843;BME280;10082;51.038;6.992;2023-04-01T05:48:34;-17116.72;;;-144.33;100.00
19843;BME280;10082;51.038;6.992;2023-04-01T05:51:12;-15752.78;;;-144.33;100.00
19843;BME280;10082;51.038;6.992;2023-04-01T05:53:51;-15168.09;;;-144.33;100.00
19843;BME280;10082;51.038;6.992;2023-04-01T05:56:34;-13171.69;;;-144.33;100.00
19843;BME280;10082;51.038;6.992;2023-04-01T05:59:10;-11782.94;;;-144.33;100.00
19843;BME280;10082;51.038;6.992;2023-04-01T06:01:41;-10368.34;;;-144.33;100.00
19843;BME280;10082;51.038;6.992;2023-04-01T06:04:16;-8650.59;;;-144.33;100.00
19843;BME280;10082;51.038;6.992;2023-04-01T06:06:49;-7023.88;;;-144.33;100.00
19843;BME280;10082;51.038;6.992;2023-04-01T06:09:19;-5621.19;;;-144.33;100.00
19843;BME280;10082;51.038;6.992;2023-04-01T06:12:08;-4245.34;;;-144.33;100.00
19843;BME280;10082;51.038;6.992;2023-04-01T06:14:55;-2829.91;;;-144.33;100.00
19843;BME280;10082;51.038;6.992;2023-04-01T06:17:38;-1971.38;;;-144.33;100.00
19843;BME280;10082;51.038;6.992;2023-04-01T06:20:12;-1243.75;;;-144.33;100.00
19843;BME280;10082;51.038;6.992;2023-04-01T06:23:09;92.56;;;-144.33;100.00
19843;BME280;10082;51.038;6.992;2023-04-01T06:25:49;597.47;;;-144.33;100.00
19843;BME280;10082;51.038;6.992;2023-04-01T06:28:39;264.78;;;-144.33;100.00
19843;BME280;10082;51.038;6.992;2023-04-01T06:31:22;-83.56;;;-144.33;100.00
19843;BME280;10082;51.038;6.992;2023-04-01T06:34:03;24.06;;;-144.33;100.00
19843;BME280;10082;51.038;6.992;2023-04-01T06:36:51;703.16;;;-144.33;100.00
19843;BME280;10082;51.038;6.992;2023-04-01T06:39:35;1742.56;;;-144.33;100.00
19843;BME280;10082;51.038;6.992;2023-04-01T06:42:32;2324.03;;;-144.33;100.00
19843;BME280;10082;51.038;6.992;2023-04-01T06:45:20;3179.78;;;-144.33;100.00
19843;BME280;10082;51.038;6.992;2023-04-01T06:48:29;3841.78;;;-144.33;100.00
19843;BME280;10082;51.038;6.992;2023-04-01T06:51:25;4674.34;;;-144.33;100.00
19843;BME280;10082;51.038;6.992;2023-04-01T06:54:17;5612.94;;;-144.33;100.00
19843;BME280;10082;51.038;6.992;2023-04-01T06:57:28;6265.56;;;-144.33;100.00
19843;BME280;10082;51.038;6.992;2023-04-01T06:59:59;6963.38;;;-144.33;100.00
19843;BME280;10082;51.038;6.992;2023-04-01T07:02:33;7377.03;;;-144.33;100.00
19843;BME280;10082;51.038;6.992;2023-04-01T07:05:04;7688.78;;;-144.33;100.00
19843;BME280;10082;51.038;6.992;2023-04-01T07:07:35;7312.34;;;-144.33;100.00
19843;BME280;10082;51.038;6.992;2023-04-01T07:10:13;6967.31;;;-144.33;100.00
19843;BME280;10082;51.038;6.992;2023-04-01T07:13:13;7212.34;;;-144.33;100.00
19843;BME280;10082;51.038;6.992;2023-04-01T07:15:59;8096.63;;;-144.33;100.00
19843;BME280;10082;51.038;6.992;2023-04-01T07:18:34;9104.69;;;-144.33;100.00
19843;BME280;10082;51.038;6.992;2023-04-01T07:21:04;10313.13;;;-144.33;100.00
19843;BME280;10082;51.038;6.992;2023-04-01T07:23:39;12114.72;;;-144.33;100.00
19843;BME280;10082;51.038;6.992;2023-04-01T07:26:23;13828.75;;;-144.33;100.00
19843;BME280;10082;51.038;6.992;2023-04-01T07:29:09;15248.88;;;-144.33;100.00
19843;BME280;10082;51.038;6.992;2023-04-01T07:34:54;17872.44;;;-144.33;100.00
19843;BME280;10082;51.038;6.992;2023-04-01T07:37:28;19160.28;;;-144.33;100.00
19843;BME280;10082;51.038;6.992;2023-04-01T07:40:08;20470.22;;;-144.33;100.00
19843;BME280;10082;51.038;6.992;2023-04-01T07:42:46;21324.09;;;-144.33;100.00
19843;BME280;10082;51.038;6.992;2023-04-01T07:45:22;22250.94;;;-144.33;100.00
19843;BME280;10082;51.038;6.992;2023-04-01T07:48:09;22939.84;;;-144.33;100.00
19843;BME280;10082;51.038;6.992;2023-04-01T07:50:46;24570.03;;;-144.33;100.00
19843;BME280;10082;51.038;6.992;2023-04-01T07:53:19;25347.97;;;-144.33;100.00
19843;BME280;10082;51.038;6.992;2023-04-01T07:55:58;26277.78;;;-144.33;100.00
19843;BME280;10082;51.038;6.992;2023-04-01T07:58:37;26823.53;;;-144.33;100.00
19843;BME280;10082;51.038;6.992;2023-04-01T08:01:19;27251.13;;;-144.33;100.00
19843;BME280;10082;51.038;6.992;2023-04-01T08:04:01;27763.53;;;-144.33;100.00
19843;BME280;10082;51.038;6.992;2023-04-01T08:06:38;27948.78;;;-144.33;100.00
19843;BME280;10082;51.038;6.992;2023-04-01T08:09:15;28433.69;;;-144.33;100.00
19843;BME280;10082;51.038;6.992;2023-04-01T08:12:01;28816.13;;;-144.33;100.00
19843;BME280;10082;51.038;6.992;2023-04-01T08:15:07;29709.25;;;-144.33;100.00
19843;BME280;10082;51.038;6.992;2023-04-01T08:18:05;29567.28;;;-144.33;100.00
19843;BME280;10082;51.038;6.992;2023-04-01T08:20:38;28601.25;;;-144.33;100.00
19843;BME280;10082;51.038;6.992;2023-04-01T08:23:12;28295.69;;;-144.33;100.00
19843;BME280;10082;51.038;6.992;2023-04-01T08:25:46;28516.47;;;-144.33;100.00
19843;BME280;10082;51.038;6.992;2023-04-01T08:28:20;28563.78;;;-144.33;100.00
19843;BME280;10082;51.038;6.992;2023-04-01T08:30:52;29032.97;;;-144.33;100.00
19843;BME280;10082;51.038;6.992;2023-04-01T08:33:25;29723.06;;;-144.33;100.00
19843;BME280;10082;51.038;6.992;2023-04-01T08:36:10;29598.84;;;-144.33;100.00
19843;BME280;10082;51.038;6.992;2023-04-01T08:38:44;30468.50;;;-144.33;100.00
19843;BME280;10082;51.038;6.992;2023-04-01T08:41:42;31083.88;;;-144.33;100.00
19843;BME280;10082;51.038;6.992;2023-04-01T08:44:48;31823.66;;;-144.33;100.00
19843;BME280;10082;51.038;6.992;2023-04-01T08:47:42;32818.13;;;-144.33;100.00
19843;BME280;10082;51.038;6.992;2023-04-01T08:50:30;33001.66;;;-144.33;100.00
19843;BME280;10082;51.038;6.992;2023-04-01T08:53:17;33009.56;;;-144.33;100.00
19843;BME280;10082;51.038;6.992;2023-04-01T08:56:03;33688.50;;;-144.33;100.00
19843;BME280;10082;51.038;6.992;2023-04-01T08:58:48;33787.22;;;-144.33;100.00
19843;BME280;10082;51.038;6.992;2023-04-01T09:01:57;34353.75;;;-144.33;100.00
19843;BME280;10082;51.038;6.992;2023-04-01T09:05:18;35066.50;;;-144.33;100.00
19843;BME280;10082;51.038;6.992;2023-04-01T09:08:00;35824.81;;;-144.33;100.00
19843;BME280;10082;51.038;6.992;2023-04-01T09:10:53;35495.00;;;-144.33;100.00
19843;BME280;10082;51.038;6.992;2023-04-01T09:14:16;34722.94;;;-144.33;100.00
19843;BME280;10082;51.038;6.992;2023-04-01T09:17:04;33779.31;;;-144.33;100.00
19843;BME280;10082;51.038;6.992;2023-04-01T09:19:50;33676.66;;;-144.33;100.00
19843;BME280;10082;51.038;6.992;2023-04-01T09:22:50;33076.66;;;-144.33;100.00
19843;BME280;10082;51.038;6.992;2023-04-01T09:25:34;32362.31;;;-144.33;100.00
19843;BME280;10082;51.038;6.992;2023-04-01T09:28:10;31798.00;;;-144.33;100.00
19843;BME280;10082;51.038;6.992;2023-04-01T09:31:06;31624.41;;;-144.33;100.00
19843;BME280;10082;51.038;6.992;2023-04-01T09:37:21;30511.88;;;-144.33;100.00
19843;BME280;10082;51.038;6.992;2023-04-01T09:40:31;30403.41;;;-144.33;100.00
19843;BME280;10082;51.038;6.992;2023-04-01T09:43:26;29829.53;;;-144.33;100.00
19843;BME280;10082;51.038;6.992;2023-04-01T09:46:06;30137.19;;;-144.33;100.00
19843;BME280;10082;51.038;6.992;2023-04-01T09:51:37;30020.81;;;-144.33;100.00
19843;BME280;10082;51.038;6.992;2023-04-01T09:54:17;30352.13;;;-144.33;100.00
19843;BME280;10082;51.038;6.992;2023-04-01T09:57:10;30397.50;;;-144.33;100.00
19843;BME280;10082;51.038;6.992;2023-04-01T10:00:25;30681.50;;;-144.33;100.00
19843;BME280;10082;51.038;6.992;2023-04-01T10:13:06;30133.22;;;-144.33;100.00
19843;BME280;10082;51.038;6.992;2023-04-01T10:16:07;30728.84;;;-144.33;100.00
19843;BME280;10082;51.038;6.992;2023-04-01T10:19:02;30507.94;;;-144.33;100.00
19843;BME280;10082;51.038;6.992;2023-04-01T10:22:16;30505.97;;;-144.33;100.00
19843;BME280;10082;51.038;6.992;2023-04-01T10:25:02;31531.69;;;-144.33;100.00
19843;BME280;10082;51.038;6.992;2023-04-01T10:31:19;31048.38;;;-144.33;100.00
19843;BME280;10082;51.038;6.992;2023-04-01T10:36:52;30505.97;;;-144.33;100.00
19843;BME280;10082;51.038;6.992;2023-04-01T10:40:02;31308.75;;;-144.33;100.00
19843;BME280;10082;51.038;6.992;2023-04-01T10:43:37;31265.38;;;-144.33;100.00
19843;BME280;10082;51.038;6.992;2023-04-01T10:46:33;31285.09;;;-144.33;100.00
19843;BME280;10082;51.038;6.992;2023-04-01T10:53:10;32032.78;;;-144.33;100.00
19843;BME280;10082;51.038;6.992;2023-04-01T10:56:38;32216.28;;;-144.33;100.00
19843;BME280;10082;51.038;6.992;2023-04-01T11:00:01;32441.22;;;-144.33;100.00
19843;BME280;10082;51.038;6.992;2023-04-01T11:10:08;33652.97;;;-144.33;100.00
19843;BME280;10082;51.038;6.992;2023-04-01T11:13:22;33461.53;;;-144.33;100.00
19843;BME280;10082;51.038;6.992;2023-04-01T11:16:26;33120.09;;;-144.33;100.00
19843;BME280;10082;51.038;6.992;2023-04-01T11:19:20;33110.22;;;-144.33;100.00
19843;BME280;10082;51.038;6.992;2023-04-01T11:22:16;32713.56;;;-144.33;100.00
19843;BME280;10082;51.038;6.992;2023-04-01T11:28:33;31756.59;;;-144.33;100.00
19843;BME280;10082;51.038;6.992;2023-04-01T11:31:11;31565.22;;;-144.33;100.00
19843;BME280;10082;51.038;6.992;2023-04-01T11:33:51;31064.16;;;-144.33;100.00
19843;BME280;10082;51.038;6.992;2023-04-01T11:36:29;31348.22;;;-144.33;100.00
19843;BME280;10082;51.038;6.992;2023-04-01T11:39:17;31476.44;;;-144.33;100.00
19843;BME280;10082;51.038;6.992;2023-04-01T11:42:35;30744.63;;;-144.33;100.00
19843;BME280;10082;51.038;6.992;2023-04-01T11:45:35;29656.03;;;-144.33;100.00
19843;BME280;10082;51.038;6.992;2023-04-01T11:48:19;29665.88;;;-144.33;100.00
19843;BME280;10082;51.038;6.992;2023-04-01T11:51:02;29498.28;;;-144.33;100.00
19843;BME280;10082;51.038;6.992;2023-04-01T11:53:44;28638.69;;;-144.33;100.00
19843;BME280;10082;51.038;6.992;2023-04-01T11:59:14;27706.38;;;-144.33;100.00
19843;BME280;10082;51.038;6.992;2023-04-01T12:01:56;27128.97;;;-144.33;100.00
19843;BME280;10082;51.038;6.992;2023-04-01T12:04:38;27755.66;;;-144.33;100.00
19843;BME280;10082;51.038;6.992;2023-04-01T12:07:17;27361.50;;;-144.33;100.00
19843;BME280;10082;51.038;6.992;2023-04-01T12:09:55;26531.94;;;-144.33;100.00
19843;BME280;10082;51.038;6.992;2023-04-01T12:12:27;24739.41;;;-144.33;100.00
19843;BME280;10082;51.038;6.992;2023-04-01T12:15:11;24505.06;;;-144.33;100.00
19843;BME280;10082;51.038;6.992;2023-04-01T12:17:49;23792.25;;;-144.33;100.00
19843;BME280;10082;51.038;6.992;2023-04-01T12:20:29;23632.78;;;-144.33;100.00
19843;BME280;10082;51.038;6.992;2023-04-01T12:23:06;22437.91;;;-144.33;100.00
19843;BME280;10082;51.038;6.992;2023-04-01T12:25:55;21231.59;;;-144.33;100.00
19843;BME280;10082;51.038;6.992;2023-04-01T12:28:40;20391.53;;;-144.33;100.00
19843;BME280;10082;51.038;6.992;2023-04-01T12:31:19;19695.22;;;-144.33;100.00
19843;BME280;10082;51.038;6.992;2023-04-01T12:36:53;17217.84;;;-144.33;100.00
19843;BME280;10082;51.038;6.992;2023-04-01T12:39:36;17239.47;;;-144.33;100.00
19843;BME280;10082;51.038;6.992;2023-04-01T12:42:16;16227.34;;;-144.33;100.00
19843;BME280;10082;51.038;6.992;2023-04-01T12:44:59;16622.34;;;-144.33;100.00
19843;BME280;10082;51.038;6.992;2023-04-01T12:47:53;15889.38;;;-144.33;100.00
19843;BME280;10082;51.038;6.992;2023-04-01T12:50:39;15578.94;;;-144.33;100.00
19843;BME280;10082;51.038;6.992;2023-04-01T12:53:23;15266.53;;;-144.33;100.00
19843;BME280;10082;51.038;6.992;2023-04-01T12:55:59;14362.94;;;-144.33;100.00
19843;BME280;10082;51.038;6.992;2023-04-01T12:58:44;13139.50;;;-144.33;100.00
19843;BME280;10082;51.038;6.992;2023-04-01T13:01:44;12377.75;;;-144.33;100.00
19843;BME280;10082;51.038;6.992;2023-04-01T13:04:56;10840.94;;;-144.33;100.00
19843;BME280;10082;51.038;6.992;2023-04-01T13:08:00;9699.03;;;-144.33;100.00
19843;BME280;10082;51.038;6.992;2023-04-01T13:10:44;8671.22;;;-144.33;100.00
19843;BME280;10082;51.038;6.992;2023-04-01T13:13:37;7786.81;;;-144.33;100.00
19843;BME280;10082;51.038;6.992;2023-04-01T13:16:08;7302.53;;;-144.33;100.00
19843;BME280;10082;51.038;6.992;2023-04-01T13:18:45;7037.88;;;-144.33;100.00
19843;BME280;10082;51.038;6.992;2023-04-01T13:21:23;5705.03;;;-144.33;100.00
19843;BME280;10082;51.038;6.992;2023-04-01T13:24:03;5301.34;;;-144.33;100.00
19843;BME280;10082;51.038;6.992;2023-04-01T13:26:40;5185.75;;;-144.33;100.00
19843;BME280;10082;51.038;6.992;2023-04-01T13:29:15;5448.31;;;-144.33;100.00
19843;BME280;10082;51.038;6.992;2023-04-01T13:31:55;5552.19;;;-144.33;100.00
19843;BME280;10082;51.038;6.992;2023-04-01T13:34:32;5125.00;;;-144.33;100.00
19843;BME280;10082;51.038;6.992;2023-04-01T13:40:21;4646.94;;;-144.33;100.00
19843;BME280;10082;51.038;6.992;2023-04-01T13:42:56;4682.19;;;-144.33;100.00
19843;BME280;10082;51.038;6.992;2023-04-01T13:45:27;4660.66;;;-144.33;100.00
19843;BME280;10082;51.038;6.992;2023-04-01T13:48:29;4782.13;;;-144.33;100.00
19843;BME280;10082;51.038;6.992;2023-04-01T13:54:12;6426.28;;;-144.33;100.00
19843;BME280;10082;51.038;6.992;2023-04-01T13:56:57;6735.97;;;-144.33;100.00
19843;BME280;10082;51.038;6.992;2023-04-01T13:59:53;7806.44;;;-144.33;100.00
19843;BME280;10082;51.038;6.992;2023-04-01T14:02:47;7708.38;;;-144.33;100.00
19843;BME280;10082;51.038;6.992;2023-04-01T14:08:26;9051.72;;;-144.33;100.00
19843;BME280;10082;51.038;6.992;2023-04-01T14:11:06;9087.03;;;-144.33;100.00
19843;BME280;10082;51.038;6.992;2023-04-01T14:13:52;9879.53;;;-144.33;100.00
19843;BME280;10082;51.038;6.992;2023-04-01T14:16:44;10120.84;;;-144.33;100.00
19843;BME280;10082;51.038;6.992;2023-04-01T14:19:26;10056.09;;;-144.33;100.00
19843;BME280;10082;51.038;6.992;2023-04-01T14:22:05;10693.78;;;-144.33;100.00
19843;BME280;10082;51.038;6.992;2023-04-01T14:24:53;10960.66;;;-144.33;100.00
19843;BME280;10082;51.038;6.992;2023-04-01T14:27:39;10589.78;;;-144.33;100.00
19843;BME280;10082;51.038;6.992;2023-04-01T14:30:40;10944.94;;;-144.33;100.00
19843;BME280;10082;51.038;6.992;2023-04-01T14:33:21;10915.53;;;-144.33;100.00